TimeCDT,TemperatureF,Dew PointF,Humidity,Sea Level PressureIn,VisibilityMPH,Wind Direction,Wind SpeedMPH,Gust SpeedMPH,PrecipitationIn,Events,Conditions,WindDirDegrees,DateUTC
12:15 AM,50.4,41.2,71,29.78,10.0,West,10.4,-,N/A,,Scattered Clouds,270,2013-10-26 05:15:00
12:35 AM,48.9,40.5,73,29.78,10.0,West,9.2,-,N/A,,Scattered Clouds,280,2013-10-26 05:35:00
12:55 AM,48.9,39.4,70,29.78,10.0,West,10.4,-,N/A,,Scattered Clouds,280,2013-10-26 05:55:00
1:15 AM,48.6,38.3,68,29.79,10.0,West,10.4,16.1,N/A,,Scattered Clouds,280,2013-10-26 06:15:00
1:35 AM,48.2,36.5,64,29.79,10.0,WNW,13.8,18.4,N/A,,Clear,290,2013-10-26 06:35:00
1:55 AM,47.1,36.5,67,29.80,10.0,WNW,15.0,20.7,N/A,,Clear,290,2013-10-26 06:55:00
2:15 AM,47.3,35.1,62,29.81,10.0,WNW,12.7,21.9,N/A,,Scattered Clouds,300,2013-10-26 07:15:00
2:35 AM,46.2,34.7,64,29.81,10.0,WNW,13.8,18.4,N/A,,Scattered Clouds,290,2013-10-26 07:35:00
2:55 AM,44.8,34.2,66,29.82,10.0,WNW,11.5,-,N/A,,Scattered Clouds,290,2013-10-26 07:55:00
3:15 AM,44.6,33.3,64,29.82,10.0,West,9.2,19.6,N/A,,Clear,280,2013-10-26 08:15:00
3:35 AM,43.5,32.0,64,29.83,10.0,WNW,10.4,17.3,N/A,,Clear,290,2013-10-26 08:35:00
3:55 AM,43.0,30.4,61,29.84,10.0,WNW,13.8,18.4,N/A,,Clear,300,2013-10-26 08:55:00
4:15 AM,42.1,30.4,63,29.85,10.0,NW,10.4,-,N/A,,Clear,310,2013-10-26 09:15:00
4:35 AM,41.2,30.6,66,29.86,10.0,WNW,9.2,-,N/A,,Scattered Clouds,300,2013-10-26 09:35:00
4:55 AM,41.9,31.5,66,29.87,10.0,WNW,17.3,24.2,N/A,,Mostly Cloudy,300,2013-10-26 09:55:00
5:15 AM,41.2,32.0,70,29.89,10.0,NW,12.7,20.7,N/A,,Overcast,320,2013-10-26 10:15:00
5:35 AM,40.5,32.0,72,29.91,10.0,WNW,13.8,19.6,N/A,,Overcast,300,2013-10-26 10:35:00
5:55 AM,40.8,32.0,71,29.92,10.0,WNW,11.5,20.7,N/A,,Overcast,300,2013-10-26 10:55:00
6:15 AM,40.6,32.0,71,29.93,10.0,WNW,16.1,21.9,N/A,,Overcast,290,2013-10-26 11:15:00
6:35 AM,39.4,31.1,72,29.94,10.0,WNW,11.5,18.4,N/A,,Overcast,300,2013-10-26 11:35:00
6:55 AM,38.5,30.7,74,29.95,10.0,NW,10.4,16.1,N/A,,Overcast,310,2013-10-26 11:55:00
7:15 AM,39.0,30.9,73,29.96,10.0,WNW,9.2,17.3,N/A,,Overcast,300,2013-10-26 12:15:00
7:35 AM,38.7,30.7,73,29.96,10.0,WNW,11.5,-,N/A,,Overcast,290,2013-10-26 12:35:00
7:55 AM,39.2,31.1,73,29.98,10.0,WNW,10.4,16.1,N/A,,Overcast,300,2013-10-26 12:55:00
8:15 AM,38.8,30.9,73,29.99,10.0,WNW,10.4,17.3,N/A,,Overcast,300,2013-10-26 13:15:00
8:35 AM,39.2,30.9,72,29.99,10.0,WNW,11.5,17.3,N/A,,Mostly Cloudy,290,2013-10-26 13:35:00
8:55 AM,39.4,31.1,72,30.00,10.0,WNW,11.5,-,N/A,,Overcast,300,2013-10-26 13:55:00
9:15 AM,39.9,31.1,71,30.01,10.0,WNW,10.4,-,N/A,,Overcast,300,2013-10-26 14:15:00
9:35 AM,40.1,30.7,69,30.02,10.0,WNW,10.4,17.3,N/A,,Mostly Cloudy,290,2013-10-26 14:35:00
9:55 AM,41.2,30.7,66,30.03,10.0,NW,13.8,25.3,N/A,,Mostly Cloudy,310,2013-10-26 14:55:00
10:15 AM,41.5,30.4,65,30.03,10.0,NW,12.7,23.0,N/A,,Overcast,320,2013-10-26 15:15:00
10:35 AM,42.8,30.0,61,30.04,10.0,NNW,12.7,20.7,N/A,,Overcast,330,2013-10-26 15:35:00
10:55 AM,41.9,30.2,63,30.05,10.0,NW,12.7,19.6,N/A,,Overcast,320,2013-10-26 15:55:00
11:15 AM,41.9,30.6,64,30.06,10.0,NW,10.4,19.6,N/A,,Overcast,320,2013-10-26 16:15:00
11:35 AM,41.9,30.9,65,30.07,10.0,NW,13.8,17.3,N/A,,Overcast,310,2013-10-26 16:35:00
11:55 AM,41.9,30.9,65,30.08,10.0,WNW,11.5,19.6,N/A,,Overcast,290,2013-10-26 16:55:00
12:15 PM,42.6,30.4,62,30.08,10.0,WNW,12.7,18.4,N/A,,Overcast,290,2013-10-26 17:15:00
12:35 PM,44.1,30.7,59,30.08,10.0,WNW,13.8,19.6,N/A,,Overcast,290,2013-10-26 17:35:00
12:55 PM,44.1,30.0,58,30.08,10.0,NW,13.8,21.9,N/A,,Overcast,320,2013-10-26 17:55:00
1:15 PM,43.7,29.3,57,30.08,10.0,NNW,11.5,20.7,N/A,,Overcast,330,2013-10-26 18:15:00
1:35 PM,43.7,29.3,57,30.09,10.0,WNW,12.7,19.6,N/A,,Overcast,300,2013-10-26 18:35:00
1:55 PM,44.1,29.8,57,30.09,10.0,WNW,10.4,16.1,N/A,,Overcast,300,2013-10-26 18:55:00
2:15 PM,44.1,29.8,57,30.08,10.0,NW,5.8,12.7,N/A,,Overcast,310,2013-10-26 19:15:00
2:35 PM,45.0,29.5,55,30.08,10.0,NW,11.5,16.1,N/A,,Overcast,310,2013-10-26 19:35:00
2:55 PM,44.2,29.3,56,30.09,10.0,NW,10.4,-,N/A,,Overcast,320,2013-10-26 19:55:00
3:15 PM,44.2,29.1,55,30.10,10.0,NW,9.2,19.6,N/A,,Overcast,320,2013-10-26 20:15:00
3:35 PM,44.4,29.1,55,30.10,10.0,NNW,10.4,-,N/A,,Overcast,330,2013-10-26 20:35:00
3:55 PM,44.1,29.1,56,30.10,10.0,NW,9.2,17.3,N/A,,Overcast,320,2013-10-26 20:55:00
4:15 PM,43.9,29.7,57,30.10,10.0,NNW,9.2,16.1,N/A,,Overcast,330,2013-10-26 21:15:00
4:35 PM,43.7,29.3,57,30.10,10.0,NW,9.2,16.1,N/A,,Overcast,310,2013-10-26 21:35:00
4:55 PM,43.7,28.8,56,30.10,10.0,NW,8.1,-,N/A,,Overcast,320,2013-10-26 21:55:00
5:15 PM,43.2,28.8,57,30.10,10.0,NW,6.9,-,N/A,,Overcast,310,2013-10-26 22:15:00
5:35 PM,42.8,28.9,58,30.10,10.0,NW,8.1,-,N/A,,Overcast,310,2013-10-26 22:35:00
5:55 PM,42.3,28.8,59,30.10,10.0,NW,5.8,-,N/A,,Overcast,320,2013-10-26 22:55:00
6:15 PM,41.9,29.5,61,30.11,10.0,WNW,6.9,-,N/A,,Overcast,300,2013-10-26 23:15:00
6:35 PM,41.9,27.9,58,30.10,10.0,NNW,10.4,-,N/A,,Overcast,340,2013-10-26 23:35:00
6:55 PM,41.5,27.9,58,30.10,10.0,NW,4.6,-,N/A,,Overcast,320,2013-10-26 23:55:00
7:15 PM,41.0,28.4,61,30.11,10.0,WNW,4.6,-,N/A,,Overcast,290,2013-10-27 00:15:00
7:35 PM,40.6,28.8,63,30.10,10.0,Calm,Calm,-,N/A,,Overcast,0,2013-10-27 00:35:00
7:55 PM,40.6,29.3,64,30.11,10.0,WNW,3.5,-,N/A,,Overcast,290,2013-10-27 00:55:00
8:15 PM,40.6,29.5,64,30.11,10.0,West,4.6,-,N/A,,Overcast,270,2013-10-27 01:15:00
8:35 PM,40.5,29.7,65,30.10,10.0,West,4.6,-,N/A,,Overcast,280,2013-10-27 01:35:00
8:55 PM,40.3,30.2,67,30.09,10.0,West,6.9,-,N/A,,Overcast,270,2013-10-27 01:55:00
9:15 PM,40.3,30.2,67,30.09,10.0,West,5.8,-,N/A,,Overcast,260,2013-10-27 02:15:00
9:35 PM,39.7,30.2,69,30.09,10.0,West,6.9,-,N/A,,Overcast,260,2013-10-27 02:35:00
9:55 PM,39.6,29.8,68,30.09,10.0,West,4.6,-,N/A,,Overcast,260,2013-10-27 02:55:00
10:15 PM,39.0,30.2,71,30.09,10.0,WSW,3.5,-,N/A,,Overcast,250,2013-10-27 03:15:00
10:35 PM,38.1,30.6,74,30.07,10.0,WSW,3.5,-,N/A,,Overcast,240,2013-10-27 03:35:00
10:55 PM,37.9,29.7,72,30.06,10.0,WSW,3.5,-,N/A,,Overcast,240,2013-10-27 03:55:00
11:15 PM,38.3,30.6,74,30.06,10.0,WSW,3.5,-,N/A,,Overcast,250,2013-10-27 04:15:00
11:35 PM,38.5,30.0,72,30.06,10.0,West,4.6,-,N/A,,Overcast,260,2013-10-27 04:35:00
11:55 PM,38.3,29.8,72,30.05,10.0,WSW,4.6,-,N/A,,Overcast,250,2013-10-27 04:55:00